createdAt,value
2017-04-21T00:00:53.757Z,0
2017-04-21T00:01:54.365Z,0
2017-04-21T00:02:54.975Z,0
2017-04-21T00:03:55.561Z,0
2017-04-21T00:04:56.212Z,0
2017-04-21T00:05:56.813Z,0
2017-04-21T00:06:57.409Z,0
2017-04-21T00:07:58.014Z,0
2017-04-21T00:08:58.600Z,0
2017-04-21T00:09:59.191Z,0
2017-04-21T00:10:59.791Z,0
2017-04-21T00:12:00.385Z,0
2017-04-21T00:13:00.976Z,0
2017-04-21T00:14:01.576Z,0
2017-04-21T00:15:02.182Z,0
2017-04-21T00:16:02.773Z,0
2017-04-21T00:17:03.364Z,0
2017-04-21T00:18:03.958Z,0
2017-04-21T00:19:04.548Z,0
2017-04-21T00:20:05.148Z,0
2017-04-21T00:21:05.747Z,0
2017-04-21T00:22:06.338Z,0
2017-04-21T00:23:06.938Z,0
2017-04-21T00:24:07.544Z,0
2017-04-21T00:25:08.136Z,0
2017-04-21T00:26:08.743Z,0
2017-04-21T00:27:09.339Z,0
2017-04-21T00:28:09.948Z,0
2017-04-21T00:29:10.554Z,0
2017-04-21T00:30:11.230Z,0
2017-04-21T00:31:11.743Z,0
2017-04-21T00:32:12.341Z,0
2017-04-21T00:33:12.938Z,0
2017-04-21T00:34:13.544Z,0
2017-04-21T00:35:14.186Z,0
2017-04-21T00:36:14.811Z,0
2017-04-21T00:37:15.413Z,0
2017-04-21T00:38:16.012Z,0
2017-04-21T00:39:16.615Z,0
2017-04-21T00:40:17.258Z,0
2017-04-21T00:41:17.864Z,0
2017-04-21T00:42:18.462Z,0
2017-04-21T00:43:19.052Z,0
2017-04-21T00:44:19.645Z,0
2017-04-21T00:45:20.302Z,0
2017-04-21T00:46:20.889Z,0
2017-04-21T00:47:21.484Z,0
2017-04-21T00:48:22.088Z,0
2017-04-21T00:49:22.676Z,0
2017-04-21T00:50:23.265Z,0
2017-04-21T00:51:23.861Z,0
2017-04-21T00:52:24.449Z,0
2017-04-21T00:53:25.051Z,0
2017-04-21T00:54:25.655Z,0
2017-04-21T00:55:26.252Z,0
2017-04-21T00:56:26.859Z,0
2017-04-21T00:57:27.450Z,0
2017-04-21T00:58:28.051Z,0
2017-04-21T00:59:28.660Z,0
2017-04-21T01:00:29.260Z,0
2017-04-21T01:01:29.866Z,0
2017-04-21T01:02:30.467Z,0
2017-04-21T01:03:31.069Z,0
2017-04-21T01:04:31.673Z,0
2017-04-21T01:05:32.326Z,0
2017-04-21T01:06:32.935Z,0
2017-04-21T01:07:33.537Z,0
2017-04-21T01:08:34.143Z,0
2017-04-21T01:09:34.747Z,0
2017-04-21T01:10:35.341Z,0
2017-04-21T01:11:35.937Z,0
2017-04-21T01:12:36.524Z,0
2017-04-21T01:13:37.129Z,0
2017-04-21T01:14:37.736Z,0
2017-04-21T01:15:38.326Z,0
2017-04-21T01:16:38.925Z,0
2017-04-21T01:17:39.527Z,0
2017-04-21T01:18:40.131Z,0
2017-04-21T01:19:40.729Z,0
2017-04-21T01:20:41.329Z,0
2017-04-21T01:21:41.928Z,0
2017-04-21T01:22:42.532Z,0
2017-04-21T01:23:43.123Z,0
2017-04-21T01:24:43.727Z,0
2017-04-21T01:25:44.330Z,0
2017-04-21T01:26:44.933Z,0
2017-04-21T01:27:45.537Z,0
2017-04-21T01:28:46.127Z,0
2017-04-21T01:29:46.730Z,0
2017-04-21T01:30:47.336Z,0
2017-04-21T01:31:47.926Z,0
2017-04-21T01:32:48.516Z,0
2017-04-21T01:33:49.125Z,0
2017-04-21T01:34:49.732Z,0
2017-04-21T01:35:50.325Z,0
2017-04-21T01:36:50.912Z,0
2017-04-21T01:37:51.516Z,0
2017-04-21T01:38:52.124Z,0
2017-04-21T01:39:52.733Z,0
2017-04-21T01:40:53.340Z,0
2017-04-21T01:41:53.927Z,0
2017-04-21T01:42:54.527Z,0
2017-04-21T01:43:55.128Z,0
2017-04-21T01:44:55.729Z,0
2017-04-21T01:45:56.370Z,0
2017-04-21T01:46:56.973Z,0
2017-04-21T01:47:57.577Z,0
2017-04-21T01:48:58.172Z,0
2017-04-21T01:49:58.767Z,0
2017-04-21T01:50:59.359Z,0
2017-04-21T01:51:59.953Z,0
2017-04-21T01:53:00.555Z,0
2017-04-21T01:54:01.160Z,0
2017-04-21T01:55:01.763Z,0
2017-04-21T01:56:02.358Z,0
2017-04-21T01:57:02.965Z,0
2017-04-21T01:58:03.557Z,0
2017-04-21T01:59:04.150Z,0
2017-04-21T02:00:04.757Z,0
2017-04-21T02:01:05.347Z,0
2017-04-21T02:02:05.952Z,0
2017-04-21T02:03:06.559Z,0
2017-04-21T02:04:07.161Z,0
2017-04-21T02:05:07.753Z,0
2017-04-21T02:06:08.394Z,0
2017-04-21T02:07:08.998Z,0
2017-04-21T02:08:09.606Z,0
2017-04-21T02:09:10.209Z,0
2017-04-21T02:10:10.810Z,0
2017-04-21T02:11:11.458Z,0
2017-04-21T02:12:12.059Z,0
2017-04-21T02:13:12.662Z,0
2017-04-21T02:14:13.264Z,0
2017-04-21T02:15:13.865Z,0
2017-04-21T02:16:14.461Z,0
2017-04-21T02:17:15.062Z,0
2017-04-21T02:18:15.652Z,0
2017-04-21T02:19:16.249Z,0
2017-04-21T02:20:16.847Z,0
2017-04-21T02:21:17.439Z,0
2017-04-21T02:22:18.045Z,0
2017-04-21T02:23:18.651Z,0
2017-04-21T02:24:19.243Z,0
2017-04-21T02:25:19.832Z,0
2017-04-21T02:26:20.474Z,0
2017-04-21T02:27:21.062Z,0
2017-04-21T02:28:21.652Z,0
2017-04-21T02:29:22.257Z,0
2017-04-21T02:30:22.858Z,0
2017-04-21T02:31:23.464Z,0
2017-04-21T02:32:24.057Z,0
2017-04-21T02:33:24.662Z,0
2017-04-21T02:34:25.252Z,0
2017-04-21T02:35:25.899Z,0
2017-04-21T02:36:26.501Z,0
2017-04-21T02:37:27.112Z,0
2017-04-21T02:38:27.715Z,0
2017-04-21T02:39:28.318Z,0
2017-04-21T02:40:28.923Z,0
2017-04-21T02:41:29.528Z,0
2017-04-21T02:42:30.120Z,0
2017-04-21T02:43:30.726Z,0
2017-04-21T02:44:31.378Z,0
2017-04-21T02:45:31.974Z,0
2017-04-21T02:46:32.562Z,0
2017-04-21T02:47:33.160Z,0
2017-04-21T02:48:33.765Z,0
2017-04-21T02:49:34.353Z,0
2017-04-21T02:50:34.955Z,0
2017-04-21T02:51:35.558Z,0
2017-04-21T02:52:36.165Z,0
2017-04-21T02:53:36.767Z,0
2017-04-21T02:54:37.370Z,0
2017-04-21T02:55:37.972Z,0
2017-04-21T02:56:38.606Z,0
2017-04-21T02:57:39.180Z,0
2017-04-21T02:58:39.769Z,0
2017-04-21T02:59:40.477Z,0
2017-04-21T03:00:41.085Z,0
2017-04-21T03:01:41.683Z,0
2017-04-21T03:02:42.287Z,0
2017-04-21T03:03:42.890Z,0
2017-04-21T03:04:43.544Z,0
2017-04-21T03:05:44.145Z,0
2017-04-21T03:06:44.732Z,0
2017-04-21T03:07:45.325Z,0
2017-04-21T03:08:45.932Z,0
2017-04-21T03:09:46.536Z,0
2017-04-21T03:10:47.128Z,0
2017-04-21T03:11:47.718Z,0
2017-04-21T03:12:48.323Z,0
2017-04-21T03:13:48.929Z,0
2017-04-21T03:14:49.536Z,0
2017-04-21T03:15:50.126Z,0
2017-04-21T03:16:50.726Z,0
2017-04-21T03:17:51.330Z,0
2017-04-21T03:18:51.935Z,0
2017-04-21T03:19:52.574Z,0
2017-04-21T03:20:53.164Z,0
2017-04-21T03:21:53.765Z,0
2017-04-21T03:22:54.366Z,0
2017-04-21T03:23:54.965Z,0
2017-04-21T03:24:55.618Z,0
2017-04-21T03:25:56.222Z,0
2017-04-21T03:26:56.821Z,0
2017-04-21T03:27:57.427Z,0
2017-04-21T03:28:58.023Z,0
2017-04-21T03:29:58.673Z,0
2017-04-21T03:30:59.266Z,0
2017-04-21T03:31:59.859Z,0
2017-04-21T03:33:00.463Z,0
2017-04-21T03:34:01.055Z,0
2017-04-21T03:35:01.659Z,0
2017-04-21T03:36:02.266Z,0
2017-04-21T03:37:02.874Z,0
2017-04-21T03:38:03.476Z,0
2017-04-21T03:39:04.086Z,0
2017-04-21T03:40:04.729Z,0
2017-04-21T03:41:05.334Z,0
2017-04-21T03:42:05.924Z,0
2017-04-21T03:43:06.529Z,0
2017-04-21T03:44:07.129Z,0
2017-04-21T03:45:07.773Z,0
2017-04-21T03:46:08.373Z,0
2017-04-21T03:47:08.966Z,0
2017-04-21T03:48:09.560Z,0
2017-04-21T03:49:10.157Z,0
2017-04-21T03:50:10.810Z,0
2017-04-21T03:51:11.416Z,0
2017-04-21T03:52:12.007Z,0
2017-04-21T03:53:12.610Z,0
2017-04-21T03:54:13.212Z,4
2017-04-21T03:55:13.806Z,4
2017-04-21T03:56:14.397Z,4
2017-04-21T03:57:14.987Z,0
2017-04-21T03:58:15.583Z,4
2017-04-21T03:59:16.180Z,4
2017-04-21T04:00:16.783Z,4
2017-04-21T04:01:17.370Z,4
2017-04-21T04:02:17.980Z,4
2017-04-21T04:03:18.586Z,8
2017-04-21T04:04:19.176Z,12
2017-04-21T04:05:19.823Z,12
2017-04-21T04:06:20.433Z,16
2017-04-21T04:07:21.029Z,20
2017-04-21T04:08:21.638Z,24
2017-04-21T04:09:22.250Z,28
2017-04-21T04:10:22.906Z,32
2017-04-21T04:11:23.505Z,36
2017-04-21T04:12:24.111Z,44
2017-04-21T04:13:24.705Z,52
2017-04-21T04:14:25.309Z,64
2017-04-21T04:15:25.956Z,76
2017-04-21T04:16:26.554Z,88
2017-04-21T04:17:27.162Z,100
2017-04-21T04:18:27.767Z,116
2017-04-21T04:19:28.380Z,132
2017-04-21T04:20:28.984Z,148
2017-04-21T04:21:29.577Z,164
2017-04-21T04:22:30.181Z,180
2017-04-21T04:23:30.777Z,196
2017-04-21T04:24:31.385Z,216
2017-04-21T04:25:32.035Z,236
2017-04-21T04:26:32.644Z,256
2017-04-21T04:27:33.253Z,272
2017-04-21T04:28:33.849Z,296
2017-04-21T04:29:34.453Z,320
2017-04-21T04:30:35.114Z,340
2017-04-21T04:31:35.729Z,352
2017-04-21T04:32:36.340Z,376
2017-04-21T04:33:36.950Z,400
2017-04-21T04:34:37.555Z,432
2017-04-21T04:35:38.169Z,472
2017-04-21T04:36:38.777Z,504
2017-04-21T04:37:39.382Z,532
2017-04-21T04:38:39.992Z,564
2017-04-21T04:39:40.601Z,588
2017-04-21T04:40:41.212Z,624
2017-04-21T04:41:41.825Z,668
2017-04-21T04:42:42.423Z,728
2017-04-21T04:43:43.020Z,784
2017-04-21T04:44:43.631Z,832
2017-04-21T04:45:44.287Z,876
2017-04-21T04:46:44.892Z,912
2017-04-21T04:47:45.501Z,936
2017-04-21T04:48:46.102Z,960
2017-04-21T04:49:46.697Z,976
2017-04-21T04:50:47.309Z,984
2017-04-21T04:51:47.918Z,984
2017-04-21T04:52:48.531Z,980
2017-04-21T04:53:49.134Z,972
2017-04-21T04:54:49.728Z,984
2017-04-21T04:55:50.383Z,1028
2017-04-21T04:56:50.985Z,1088
2017-04-21T04:57:51.582Z,1144
2017-04-21T04:58:52.180Z,1184
2017-04-21T04:59:52.790Z,1228
2017-04-21T05:00:53.407Z,1280
2017-04-21T05:01:54.002Z,1324
2017-04-21T05:02:54.603Z,1344
2017-04-21T05:03:55.211Z,1328
2017-04-21T05:04:55.804Z,1288
2017-04-21T05:05:56.457Z,1236
2017-04-21T05:06:57.070Z,1196
2017-04-21T05:07:57.683Z,1208
2017-04-21T05:08:58.291Z,1232
2017-04-21T05:09:58.904Z,1248
2017-04-21T05:10:59.552Z,1256
2017-04-21T05:12:00.164Z,1272
2017-04-21T05:13:00.761Z,1304
2017-04-21T05:14:01.359Z,1360
2017-04-21T05:15:01.957Z,1412
2017-04-21T05:16:02.613Z,1444
2017-04-21T05:17:03.212Z,1476
2017-04-21T05:18:03.826Z,1520
2017-04-21T05:19:04.440Z,1584
2017-04-21T05:20:05.051Z,1656
2017-04-21T05:21:05.709Z,1732
2017-04-21T05:22:06.307Z,1836
2017-04-21T05:23:06.902Z,1964
2017-04-21T05:24:07.499Z,2088
2017-04-21T05:25:08.113Z,2220
2017-04-21T05:26:08.757Z,2344
2017-04-21T05:27:09.358Z,2428
2017-04-21T05:28:09.967Z,2508
2017-04-21T05:29:10.564Z,2596
2017-04-21T05:30:11.167Z,2688
2017-04-21T05:31:11.823Z,2732
2017-04-21T05:32:12.427Z,2732
2017-04-21T05:33:13.042Z,2716
2017-04-21T05:34:13.678Z,2732
2017-04-21T05:35:14.268Z,2796
2017-04-21T05:36:14.930Z,2916
2017-04-21T05:37:15.541Z,3084
2017-04-21T05:38:16.144Z,3276
2017-04-21T05:39:16.754Z,3448
2017-04-21T05:40:17.352Z,3564
2017-04-21T05:41:18.014Z,3584
2017-04-21T05:42:18.625Z,3568
2017-04-21T05:43:19.233Z,3584
2017-04-21T05:44:19.830Z,3548
2017-04-21T05:45:20.442Z,3436
2017-04-21T05:46:21.056Z,3420
2017-04-21T05:47:21.666Z,3484
2017-04-21T05:48:22.283Z,3536
2017-04-21T05:49:22.887Z,3512
2017-04-21T05:50:23.485Z,3388
2017-04-21T05:51:24.095Z,3264
2017-04-21T05:52:24.710Z,3168
2017-04-21T05:53:25.320Z,3080
2017-04-21T05:54:25.935Z,2972
2017-04-21T05:55:26.543Z,2884
2017-04-21T05:56:27.151Z,2836
2017-04-21T05:57:27.750Z,2812
2017-04-21T05:58:28.363Z,2792
2017-04-21T05:59:28.988Z,2796
2017-04-21T06:00:29.647Z,2876
2017-04-21T06:01:30.264Z,2988
2017-04-21T06:02:30.871Z,3104
2017-04-21T06:03:31.480Z,3188
2017-04-21T06:04:32.089Z,3244
2017-04-21T06:05:32.706Z,3252
2017-04-21T06:06:33.301Z,3204
2017-04-21T06:07:33.901Z,3100
2017-04-21T06:08:34.518Z,3020
2017-04-21T06:09:35.120Z,3060
2017-04-21T06:10:35.775Z,3204
2017-04-21T06:11:36.384Z,3320
2017-04-21T06:12:36.995Z,3364
2017-04-21T06:13:37.590Z,3392
2017-04-21T06:14:38.198Z,3548
2017-04-21T06:15:38.810Z,3848
2017-04-21T06:16:39.432Z,4128
2017-04-21T06:17:40.055Z,4204
2017-04-21T06:18:40.663Z,4120
2017-04-21T06:19:41.262Z,4012
2017-04-21T06:20:41.861Z,3896
2017-04-21T06:21:42.470Z,3784
2017-04-21T06:22:43.073Z,3748
2017-04-21T06:23:43.667Z,3868
2017-04-21T06:24:44.326Z,4108
2017-04-21T06:25:44.933Z,4332
2017-04-21T06:26:45.545Z,4460
2017-04-21T06:27:46.144Z,4544
2017-04-21T06:28:46.752Z,4604
2017-04-21T06:29:47.417Z,4668
2017-04-21T06:30:48.028Z,4752
2017-04-21T06:31:48.630Z,4840
2017-04-21T06:32:49.246Z,4940
2017-04-21T06:33:49.864Z,5056
2017-04-21T06:34:50.467Z,5160
2017-04-21T06:35:51.078Z,5192
2017-04-21T06:36:51.679Z,5164
2017-04-21T06:37:52.278Z,5208
2017-04-21T06:38:52.884Z,5460
2017-04-21T06:39:53.487Z,5940
2017-04-21T06:40:54.096Z,6480
2017-04-21T06:41:54.701Z,6772
2017-04-21T06:42:55.309Z,6636
2017-04-21T06:43:55.908Z,6364
2017-04-21T06:44:56.573Z,6420
2017-04-21T06:45:57.195Z,6828
2017-04-21T06:46:57.810Z,7076
2017-04-21T06:47:58.418Z,6928
2017-04-21T06:48:59.030Z,6604
2017-04-21T06:49:59.680Z,6424
2017-04-21T06:51:00.293Z,6532
2017-04-21T06:52:00.896Z,6832
2017-04-21T06:53:01.510Z,7140
2017-04-21T06:54:02.122Z,7528
2017-04-21T06:55:02.772Z,7924
2017-04-21T06:56:03.383Z,8084
2017-04-21T06:57:03.999Z,8220
2017-04-21T06:58:04.606Z,8404
2017-04-21T06:59:05.221Z,8380
2017-04-21T07:00:05.838Z,8140
2017-04-21T07:01:06.454Z,7976
2017-04-21T07:02:07.059Z,8168
2017-04-21T07:03:07.651Z,8568
2017-04-21T07:04:08.260Z,9036
2017-04-21T07:05:08.912Z,9524
2017-04-21T07:06:09.513Z,9848
2017-04-21T07:07:10.113Z,9952
2017-04-21T07:08:10.728Z,9932
2017-04-21T07:09:11.342Z,9904
2017-04-21T07:10:11.955Z,9972
2017-04-21T07:11:12.570Z,9908
2017-04-21T07:12:13.185Z,9672
2017-04-21T07:13:13.796Z,9508
2017-04-21T07:14:14.402Z,9480
2017-04-21T07:15:15.015Z,9456
2017-04-21T07:16:15.628Z,9440
2017-04-21T07:17:16.241Z,9536
2017-04-21T07:18:16.859Z,9756
2017-04-21T07:19:17.472Z,9920
2017-04-21T07:20:18.134Z,9976
2017-04-21T07:21:18.748Z,9980
2017-04-21T07:22:19.362Z,9972
2017-04-21T07:23:19.966Z,9976
2017-04-21T07:24:20.580Z,9876
2017-04-21T07:25:21.232Z,9808
2017-04-21T07:26:21.834Z,10028
2017-04-21T07:27:22.445Z,10500
2017-04-21T07:28:23.049Z,11016
2017-04-21T07:29:23.649Z,11456
2017-04-21T07:30:24.291Z,11676
2017-04-21T07:31:24.908Z,11932
2017-04-21T07:32:25.521Z,12304
2017-04-21T07:33:26.137Z,12608
2017-04-21T07:34:26.756Z,12848
2017-04-21T07:35:27.425Z,12884
2017-04-21T07:36:28.025Z,12736
2017-04-21T07:37:28.623Z,12780
2017-04-21T07:38:29.226Z,13008
2017-04-21T07:39:29.829Z,13384
2017-04-21T07:40:30.435Z,13824
2017-04-21T07:41:31.045Z,14188
2017-04-21T07:42:31.659Z,14436
2017-04-21T07:43:32.285Z,14620
2017-04-21T07:44:32.901Z,14948
2017-04-21T07:45:33.504Z,15480
2017-04-21T07:46:34.120Z,15816
2017-04-21T07:47:34.736Z,15340
2017-04-21T07:48:35.344Z,14008
2017-04-21T07:49:35.958Z,13152
2017-04-21T07:50:36.624Z,12960
2017-04-21T07:51:37.232Z,12756
2017-04-21T07:52:37.834Z,12476
2017-04-21T07:53:38.449Z,12372
2017-04-21T07:54:39.060Z,12408
2017-04-21T07:55:39.672Z,12540
2017-04-21T07:56:40.275Z,12672
2017-04-21T07:57:40.884Z,12840
2017-04-21T07:58:41.502Z,13224
2017-04-21T07:59:42.106Z,13908
2017-04-21T08:00:42.771Z,14516
2017-04-21T08:01:43.387Z,14852
2017-04-21T08:02:43.988Z,14812
2017-04-21T08:03:44.604Z,14640
2017-04-21T08:04:45.228Z,14360
2017-04-21T08:05:45.895Z,13736
2017-04-21T08:06:46.499Z,12948
2017-04-21T08:07:47.111Z,12436
2017-04-21T08:08:47.733Z,11872
2017-04-21T08:09:48.334Z,11440
2017-04-21T08:10:48.947Z,11084
2017-04-21T08:11:49.567Z,10520
2017-04-21T08:12:50.174Z,10064
2017-04-21T08:13:50.794Z,10464
2017-04-21T08:14:51.413Z,11788
2017-04-21T08:15:52.182Z,13440
2017-04-21T08:16:52.700Z,14712
2017-04-21T08:17:53.317Z,15592
2017-04-21T08:18:53.930Z,16276
2017-04-21T08:19:54.543Z,16720
2017-04-21T08:20:55.150Z,17056
2017-04-21T08:21:55.775Z,17616
2017-04-21T08:22:56.398Z,18316
2017-04-21T08:23:57.003Z,18556
2017-04-21T08:24:57.624Z,18244
2017-04-21T08:25:58.231Z,18008
2017-04-21T08:26:58.898Z,18016
2017-04-21T08:27:59.461Z,17720
2017-04-21T08:29:00.078Z,17452
2017-04-21T08:30:00.682Z,17072
2017-04-21T08:31:01.339Z,16464
2017-04-21T08:32:01.945Z,15692
2017-04-21T08:33:02.551Z,14728
2017-04-21T08:34:03.174Z,13376
2017-04-21T08:35:03.851Z,12252
2017-04-21T08:36:04.523Z,11780
2017-04-21T08:37:05.143Z,12548
2017-04-21T08:38:05.755Z,14504
2017-04-21T08:39:06.356Z,16820
2017-04-21T08:40:06.972Z,18520
2017-04-21T08:41:07.639Z,19616
2017-04-21T08:42:08.265Z,20000
2017-04-21T08:43:08.879Z,19744
2017-04-21T08:44:09.496Z,19264
2017-04-21T08:45:10.118Z,18756
2017-04-21T08:46:10.778Z,18588
2017-04-21T08:47:11.392Z,18560
2017-04-21T08:48:12.000Z,18172
2017-04-21T08:49:12.626Z,17324
2017-04-21T08:50:13.237Z,17000
2017-04-21T08:51:13.905Z,17400
2017-04-21T08:52:14.511Z,17356
2017-04-21T08:53:15.116Z,16988
2017-04-21T08:54:15.737Z,17276
2017-04-21T08:55:16.356Z,17624
2017-04-21T08:56:16.956Z,17072
2017-04-21T08:57:17.561Z,15876
2017-04-21T08:58:18.169Z,14460
2017-04-21T08:59:18.790Z,13188
2017-04-21T09:00:19.412Z,12148
2017-04-21T09:01:20.027Z,11296
2017-04-21T09:02:20.635Z,11080
2017-04-21T09:03:21.254Z,11480
2017-04-21T09:04:21.856Z,11692
2017-04-21T09:05:22.517Z,11140
2017-04-21T09:06:23.134Z,10196
2017-04-21T09:07:23.753Z,9432
2017-04-21T09:08:24.370Z,9320
2017-04-21T09:09:24.989Z,9952
2017-04-21T09:10:25.605Z,11212
2017-04-21T09:11:26.224Z,12336
2017-04-21T09:12:26.844Z,12708
2017-04-21T09:13:27.459Z,12768
2017-04-21T09:14:28.077Z,13160
2017-04-21T09:15:28.729Z,13820
2017-04-21T09:16:29.346Z,13752
2017-04-21T09:17:29.955Z,13072
2017-04-21T09:18:30.570Z,11800
2017-04-21T09:19:31.174Z,10908
2017-04-21T09:20:31.846Z,10648
2017-04-21T09:21:32.461Z,9868
2017-04-21T09:22:33.230Z,8608
2017-04-21T09:23:33.832Z,8032
2017-04-21T09:24:34.447Z,8320
2017-04-21T09:25:35.051Z,9008
2017-04-21T09:26:35.669Z,9900
2017-04-21T09:27:36.275Z,10952
2017-04-21T09:28:36.894Z,11948
2017-04-21T09:29:37.635Z,12628
2017-04-21T09:30:38.257Z,12756
2017-04-21T09:31:39.853Z,12284
2017-04-21T09:32:40.462Z,11860
2017-04-21T09:33:42.058Z,11992
2017-04-21T09:34:43.657Z,12500
2017-04-21T09:36:17.884Z,13456
2017-04-21T09:36:46.854Z,14976
2017-04-21T09:37:47.484Z,17464
2017-04-21T09:38:49.079Z,20352
2017-04-21T09:39:49.692Z,22784
2017-04-21T09:40:50.295Z,24864
2017-04-21T09:41:50.915Z,26944
2017-04-21T09:43:03.870Z,29472
2017-04-21T09:43:53.124Z,32800
2017-04-21T09:44:53.744Z,35648
2017-04-21T09:45:54.356Z,37216
2017-04-21T09:46:54.971Z,37504
2017-04-21T09:47:55.590Z,37472
2017-04-21T09:48:56.204Z,37344
2017-04-21T09:49:56.823Z,35232
2017-04-21T09:50:57.604Z,32992
2017-04-21T09:53:34.120Z,29600
2017-04-21T09:53:46.297Z,31072
2017-04-21T09:54:01.418Z,29344
2017-04-21T09:57:06.052Z,29600
2017-04-21T09:57:26.029Z,31008
2017-04-21T09:57:36.149Z,29280
2017-04-21T10:01:22.008Z,32160
2017-04-21T10:04:00.322Z,34880
2017-04-21T10:05:03.879Z,57280
2017-04-21T10:05:11.599Z,45856
2017-04-21T10:06:19.760Z,39904
2017-04-21T10:07:40.482Z,67072
2017-04-21T10:07:53.002Z,51360
2017-04-21T10:07:56.695Z,68320
2017-04-21T10:07:57.253Z,58272
2017-04-21T10:08:22.019Z,53088
2017-04-21T10:08:23.842Z,60736
2017-04-21T10:09:25.441Z,55776
2017-04-21T10:10:26.060Z,52288
2017-04-21T10:11:26.719Z,44832
2017-04-21T10:12:27.340Z,40736
2017-04-21T10:13:27.949Z,38496
2017-04-21T10:14:28.568Z,38112
2017-04-21T10:15:29.175Z,37728
2017-04-21T10:16:29.848Z,37568
2017-04-21T10:17:30.468Z,37952
2017-04-21T10:18:31.093Z,37760
2017-04-21T10:19:31.703Z,37440
2017-04-21T10:20:32.322Z,35488
2017-04-21T10:21:32.944Z,32192
2017-04-21T10:22:33.553Z,29856
2017-04-21T10:23:34.183Z,28992
2017-04-21T10:24:34.791Z,29024
2017-04-21T10:25:35.410Z,28992
2017-04-21T10:26:36.069Z,29248
2017-04-21T10:27:36.687Z,29664
2017-04-21T10:28:37.306Z,28608
2017-04-21T10:29:37.925Z,28128
2017-04-21T10:30:38.544Z,28768
2017-04-21T10:31:39.162Z,29984
2017-04-21T10:32:39.792Z,32416
2017-04-21T10:33:40.413Z,34944
2017-04-21T10:34:41.023Z,36448
2017-04-21T10:35:41.648Z,38720
2017-04-21T10:36:42.324Z,40800
2017-04-21T10:37:42.942Z,41504
2017-04-21T10:38:43.565Z,41344
2017-04-21T10:39:44.469Z,41728
2017-04-21T10:40:45.086Z,43520
2017-04-21T10:41:45.746Z,45632
2017-04-21T10:42:46.367Z,46720
2017-04-21T10:43:46.972Z,48448
2017-04-21T10:44:47.582Z,46656
2017-04-21T10:45:48.191Z,43872
2017-04-21T10:46:48.797Z,42176
2017-04-21T10:47:49.413Z,40160
2017-04-21T10:48:50.031Z,38368
2017-04-21T10:49:50.650Z,37184
2017-04-21T10:50:51.474Z,36480
2017-04-21T10:51:52.149Z,34176
2017-04-21T10:52:52.769Z,32736
2017-04-21T10:53:53.391Z,34624
2017-04-21T10:54:54.010Z,38400
2017-04-21T10:55:54.627Z,42496
2017-04-21T10:56:55.243Z,45600
2017-04-21T10:57:55.859Z,48128
2017-04-21T10:58:56.484Z,50016
2017-04-21T10:59:57.096Z,49248
2017-04-21T11:00:57.705Z,48576
2017-04-21T11:01:58.325Z,48544
2017-04-21T11:02:58.948Z,49504
2017-04-21T11:03:59.564Z,49568
2017-04-21T11:05:00.177Z,47840
2017-04-21T11:06:00.790Z,49152
2017-04-21T11:07:01.465Z,51968
2017-04-21T11:08:02.078Z,53152
2017-04-21T11:09:02.694Z,53824
2017-04-21T11:10:03.324Z,54208
2017-04-21T11:11:03.932Z,54464
2017-04-21T11:12:04.598Z,54720
2017-04-21T11:13:05.210Z,55456
2017-04-21T11:14:05.828Z,56192
2017-04-21T11:15:06.443Z,56352
2017-04-21T11:16:07.056Z,56256
2017-04-21T11:17:07.736Z,56864
2017-04-21T11:18:08.367Z,57536
2017-04-21T11:19:08.985Z,57312
2017-04-21T11:20:09.605Z,56064
2017-04-21T11:21:10.219Z,55776
2017-04-21T11:22:10.895Z,55808
2017-04-21T11:23:11.530Z,57568
2017-04-21T11:24:12.141Z,55744
2017-04-21T11:25:12.769Z,54368
2017-04-21T11:26:13.382Z,53600
2017-04-21T11:27:14.007Z,54176
2017-04-21T11:28:14.636Z,54880
2017-04-21T11:29:15.244Z,54752
2017-04-21T11:30:15.859Z,54208
2017-04-21T11:31:16.486Z,53728
2017-04-21T11:32:17.150Z,53408
2017-04-21T11:33:17.768Z,53440
2017-04-21T11:34:18.393Z,53056
2017-04-21T11:35:19.025Z,52480
2017-04-21T11:36:19.651Z,52224
2017-04-21T11:37:20.263Z,52512
2017-04-21T11:38:20.876Z,52672
2017-04-21T11:39:21.501Z,53056
2017-04-21T11:40:22.121Z,54400
2017-04-21T11:41:22.748Z,55136
2017-04-21T11:42:23.416Z,55616
2017-04-21T11:43:24.048Z,53696
2017-04-21T11:44:24.665Z,52352
2017-04-21T11:45:25.284Z,51936
2017-04-21T11:46:25.894Z,52512
2017-04-21T11:47:26.515Z,53440
2017-04-21T11:48:27.225Z,53888
2017-04-21T11:49:27.853Z,53920
2017-04-21T11:50:28.603Z,53696
2017-04-21T11:51:29.225Z,54016
2017-04-21T11:52:29.837Z,55008
2017-04-21T11:53:30.447Z,58080
2017-04-21T11:54:31.075Z,58144
2017-04-21T11:55:31.696Z,57216
2017-04-21T11:56:32.321Z,57248
2017-04-21T11:57:32.994Z,58784
2017-04-21T11:58:33.614Z,58752
2017-04-21T11:59:34.239Z,59072
2017-04-21T12:00:34.869Z,58720
2017-04-21T12:01:35.498Z,61568
2017-04-21T12:02:36.112Z,66112
2017-04-21T12:03:36.730Z,69280
2017-04-21T12:04:37.350Z,79520
2017-04-21T12:05:37.981Z,77152
2017-04-21T12:06:38.600Z,82816
2017-04-21T12:07:39.221Z,76672
2017-04-21T12:08:39.832Z,71744
2017-04-21T12:09:40.455Z,71008
2017-04-21T12:10:41.079Z,74912
2017-04-21T12:11:41.699Z,67968
2017-04-21T12:12:42.306Z,68576
2017-04-21T12:13:42.928Z,76224
2017-04-21T12:14:43.555Z,93920
2017-04-21T12:15:44.168Z,80736
2017-04-21T12:16:44.984Z,79712
2017-04-21T12:17:45.603Z,73568
2017-04-21T12:18:46.224Z,69280
2017-04-21T12:19:46.854Z,72192
2017-04-21T12:20:47.482Z,78528
2017-04-21T12:21:48.111Z,83168
2017-04-21T12:22:48.738Z,75264
2017-04-21T12:23:49.370Z,73152
2017-04-21T12:24:50.000Z,75584
2017-04-21T12:25:50.624Z,66528
2017-04-21T12:26:51.244Z,64064
2017-04-21T12:27:51.870Z,62944
2017-04-21T12:28:52.615Z,60960
2017-04-21T12:29:53.239Z,59072
2017-04-21T12:30:53.917Z,58688
2017-04-21T12:31:54.526Z,57344
2017-04-21T12:32:55.153Z,55776
2017-04-21T12:33:55.772Z,55488
2017-04-21T12:34:56.400Z,55104
2017-04-21T12:35:57.076Z,56000
2017-04-21T12:36:57.703Z,55392
2017-04-21T12:37:58.322Z,57280
2017-04-21T12:38:58.936Z,56512
2017-04-21T12:39:59.563Z,58688
2017-04-21T12:41:00.198Z,59360
2017-04-21T12:42:00.807Z,59456
2017-04-21T12:43:01.433Z,58144
2017-04-21T12:44:02.048Z,56576
2017-04-21T12:45:02.674Z,55680
2017-04-21T12:46:03.297Z,54400
2017-04-21T12:47:03.929Z,54272
2017-04-21T12:48:04.555Z,52704
2017-04-21T12:49:05.167Z,52352
2017-04-21T12:50:05.798Z,52320
2017-04-21T12:51:06.418Z,52768
2017-04-21T12:52:07.032Z,56288
2017-04-21T12:53:07.660Z,54976
2017-04-21T12:54:08.277Z,53920
2017-04-21T12:55:08.950Z,53312
2017-04-21T12:56:09.572Z,53792
2017-04-21T12:57:10.192Z,54720
2017-04-21T12:58:10.816Z,55776
2017-04-21T12:59:11.433Z,56992
2017-04-21T13:00:12.099Z,61408
2017-04-21T13:01:12.726Z,62528
2017-04-21T13:02:13.336Z,59136
2017-04-21T13:03:13.948Z,60416
2017-04-21T13:04:14.570Z,60704
2017-04-21T13:05:15.195Z,66848
2017-04-21T13:06:15.823Z,72096
2017-04-21T13:07:16.450Z,66784
2017-04-21T13:08:17.071Z,59648
2017-04-21T13:09:17.689Z,57120
2017-04-21T13:10:18.368Z,54112
2017-04-21T13:11:18.984Z,57344
2017-04-21T13:12:19.615Z,58336
2017-04-21T13:13:20.228Z,65536
2017-04-21T13:14:20.853Z,70848
2017-04-21T13:15:21.528Z,69984
2017-04-21T13:16:22.161Z,62336
2017-04-21T13:17:22.778Z,61568
2017-04-21T13:18:23.400Z,53952
2017-04-21T13:19:24.018Z,51168
2017-04-21T13:20:24.644Z,49632
2017-04-21T13:21:25.260Z,48768
2017-04-21T13:22:25.874Z,49088
2017-04-21T13:23:26.501Z,49536
2017-04-21T13:24:27.123Z,49248
2017-04-21T13:25:27.795Z,49088
2017-04-21T13:26:28.410Z,49504
2017-04-21T13:27:29.034Z,50112
2017-04-21T13:28:29.649Z,49056
2017-04-21T13:29:30.268Z,48192
2017-04-21T13:30:30.878Z,47008
2017-04-21T13:31:31.497Z,46144
2017-04-21T13:32:32.108Z,47200
2017-04-21T13:33:32.731Z,49056
2017-04-21T13:34:33.342Z,50560
2017-04-21T13:35:34.234Z,49280
2017-04-21T13:36:34.851Z,49120
2017-04-21T13:37:35.478Z,47808
2017-04-21T13:38:36.104Z,46496
2017-04-21T13:39:36.729Z,46208
2017-04-21T13:40:37.356Z,46016
2017-04-21T13:41:37.967Z,45824